Lone Star, South Carolina
Current Conditions -  °F | °C
As of 10:53 AM on Thursday 29 Jan 2015 (Local Time) from KOGB Reporting Station
Clear Clear  
Wind Chill: 44°   Ceiling: Unl
Heat Index: 48°   Visibility: 10mi
Dew Point: 23°   Wind: 8mph
Humidity: 37%   Direction: 210°SSW
Pressure: 30.36"   Gusts: NA
Location:  33.5645°N, 80.6572°W
Report Text: KOGB 291553Z AUTO 21007KT 10SM CLR 09/M05 A3036 RMK AO2 SLP282 T00891050
Loading
Personal Weather Stations






























Interactive Weather Map New forecast layout! Learn more

10-Day Weather Forecast

Advertisements
Track Severe Weather on mobile